sensor_id;sensor_type;location;lat;lon;timestamp;P1;durP1;ratioP1;P2;durP2;ratioP2
11685;SDS011;5899;51.282;6.094;2023-10-09T00:00:47;9.70;;;5.80;;
11685;SDS011;5899;51.282;6.094;2023-10-09T00:03:43;7.53;;;5.43;;
11685;SDS011;5899;51.282;6.094;2023-10-09T00:06:21;9.85;;;6.68;;
11685;SDS011;5899;51.282;6.094;2023-10-09T00:09:10;10.63;;;5.93;;
11685;SDS011;5899;51.282;6.094;2023-10-09T00:12:04;8.93;;;5.30;;
11685;SDS011;5899;51.282;6.094;2023-10-09T00:14:40;8.40;;;5.57;;
11685;SDS011;5899;51.282;6.094;2023-10-09T00:17:22;7.93;;;5.70;;
11685;SDS011;5899;51.282;6.094;2023-10-09T00:19:58;7.80;;;5.17;;
11685;SDS011;5899;51.282;6.094;2023-10-09T00:22:34;8.93;;;5.87;;
11685;SDS011;5899;51.282;6.094;2023-10-09T00:25:08;7.55;;;5.57;;
11685;SDS011;5899;51.282;6.094;2023-10-09T00:27:50;8.32;;;5.40;;
11685;SDS011;5899;51.282;6.094;2023-10-09T00:30:17;8.68;;;6.13;;
11685;SDS011;5899;51.282;6.094;2023-10-09T00:32:47;9.48;;;6.15;;
11685;SDS011;5899;51.282;6.094;2023-10-09T00:35:24;9.45;;;5.88;;
11685;SDS011;5899;51.282;6.094;2023-10-09T00:38:04;9.00;;;5.85;;
11685;SDS011;5899;51.282;6.094;2023-10-09T00:40:40;8.85;;;5.43;;
11685;SDS011;5899;51.282;6.094;2023-10-09T00:43:14;11.38;;;6.28;;
11685;SDS011;5899;51.282;6.094;2023-10-09T00:45:44;7.10;;;5.47;;
11685;SDS011;5899;51.282;6.094;2023-10-09T00:48:15;9.88;;;5.75;;
11685;SDS011;5899;51.282;6.094;2023-10-09T00:50:48;8.07;;;5.28;;
11685;SDS011;5899;51.282;6.094;2023-10-09T00:53:20;7.70;;;5.17;;
11685;SDS011;5899;51.282;6.094;2023-10-09T00:55:56;8.27;;;5.82;;
11685;SDS011;5899;51.282;6.094;2023-10-09T00:58:38;9.30;;;5.50;;
11685;SDS011;5899;51.282;6.094;2023-10-09T01:01:08;6.28;;;5.13;;
11685;SDS011;5899;51.282;6.094;2023-10-09T01:03:41;8.85;;;5.63;;
11685;SDS011;5899;51.282;6.094;2023-10-09T01:06:21;10.37;;;5.63;;
11685;SDS011;5899;51.282;6.094;2023-10-09T01:08:55;6.10;;;5.20;;
11685;SDS011;5899;51.282;6.094;2023-10-09T01:11:43;9.80;;;5.47;;
11685;SDS011;5899;51.282;6.094;2023-10-09T01:14:32;8.57;;;5.28;;
11685;SDS011;5899;51.282;6.094;2023-10-09T01:17:06;7.47;;;5.47;;
11685;SDS011;5899;51.282;6.094;2023-10-09T01:20:24;8.23;;;5.30;;
11685;SDS011;5899;51.282;6.094;2023-10-09T01:22:46;7.47;;;4.93;;
11685;SDS011;5899;51.282;6.094;2023-10-09T01:25:19;8.30;;;5.50;;
11685;SDS011;5899;51.282;6.094;2023-10-09T01:27:48;7.57;;;5.18;;
11685;SDS011;5899;51.282;6.094;2023-10-09T01:30:17;9.18;;;5.53;;
11685;SDS011;5899;51.282;6.094;2023-10-09T01:32:48;8.65;;;5.47;;
11685;SDS011;5899;51.282;6.094;2023-10-09T01:35:18;7.97;;;5.25;;
11685;SDS011;5899;51.282;6.094;2023-10-09T01:38:19;7.43;;;5.13;;
11685;SDS011;5899;51.282;6.094;2023-10-09T01:40:40;8.20;;;5.45;;
11685;SDS011;5899;51.282;6.094;2023-10-09T01:43:10;8.23;;;5.13;;
11685;SDS011;5899;51.282;6.094;2023-10-09T01:45:51;10.45;;;5.32;;
11685;SDS011;5899;51.282;6.094;2023-10-09T01:48:23;7.63;;;4.83;;
11685;SDS011;5899;51.282;6.094;2023-10-09T01:51:04;6.38;;;4.85;;
11685;SDS011;5899;51.282;6.094;2023-10-09T01:53:41;7.72;;;5.18;;
11685;SDS011;5899;51.282;6.094;2023-10-09T01:56:20;5.95;;;4.78;;
11685;SDS011;5899;51.282;6.094;2023-10-09T01:58:49;6.70;;;5.00;;
11685;SDS011;5899;51.282;6.094;2023-10-09T02:01:16;6.82;;;4.95;;
11685;SDS011;5899;51.282;6.094;2023-10-09T02:04:06;7.90;;;5.07;;
11685;SDS011;5899;51.282;6.094;2023-10-09T02:06:50;6.40;;;4.47;;
11685;SDS011;5899;51.282;6.094;2023-10-09T02:09:18;7.20;;;5.20;;
11685;SDS011;5899;51.282;6.094;2023-10-09T02:15:05;6.15;;;4.63;;
11685;SDS011;5899;51.282;6.094;2023-10-09T02:17:46;7.72;;;4.80;;
11685;SDS011;5899;51.282;6.094;2023-10-09T02:20:25;5.47;;;4.43;;
11685;SDS011;5899;51.282;6.094;2023-10-09T02:22:56;7.07;;;4.75;;
11685;SDS011;5899;51.282;6.094;2023-10-09T02:25:25;5.73;;;4.30;;
11685;SDS011;5899;51.282;6.094;2023-10-09T02:27:59;8.07;;;5.00;;
11685;SDS011;5899;51.282;6.094;2023-10-09T02:30:34;5.95;;;4.50;;
11685;SDS011;5899;51.282;6.094;2023-10-09T02:33:02;6.50;;;4.80;;
11685;SDS011;5899;51.282;6.094;2023-10-09T02:35:48;5.97;;;4.25;;
11685;SDS011;5899;51.282;6.094;2023-10-09T02:38:22;8.93;;;4.70;;
11685;SDS011;5899;51.282;6.094;2023-10-09T02:40:51;6.45;;;4.45;;
11685;SDS011;5899;51.282;6.094;2023-10-09T02:43:43;8.63;;;4.82;;
11685;SDS011;5899;51.282;6.094;2023-10-09T02:46:22;7.05;;;4.78;;
11685;SDS011;5899;51.282;6.094;2023-10-09T02:48:55;6.28;;;4.40;;
11685;SDS011;5899;51.282;6.094;2023-10-09T02:51:24;8.00;;;4.80;;
11685;SDS011;5899;51.282;6.094;2023-10-09T02:54:18;7.10;;;4.78;;
11685;SDS011;5899;51.282;6.094;2023-10-09T02:56:53;6.00;;;5.05;;
11685;SDS011;5899;51.282;6.094;2023-10-09T02:59:36;6.63;;;4.65;;
11685;SDS011;5899;51.282;6.094;2023-10-09T03:02:09;6.70;;;4.97;;
11685;SDS011;5899;51.282;6.094;2023-10-09T03:04:46;5.68;;;4.45;;
11685;SDS011;5899;51.282;6.094;2023-10-09T03:07:26;6.57;;;5.22;;
11685;SDS011;5899;51.282;6.094;2023-10-09T03:10:01;8.50;;;4.70;;
11685;SDS011;5899;51.282;6.094;2023-10-09T03:12:34;7.30;;;5.00;;
11685;SDS011;5899;51.282;6.094;2023-10-09T03:15:03;6.20;;;4.57;;
11685;SDS011;5899;51.282;6.094;2023-10-09T03:17:36;7.00;;;4.80;;
11685;SDS011;5899;51.282;6.094;2023-10-09T03:20:03;7.43;;;4.63;;
11685;SDS011;5899;51.282;6.094;2023-10-09T03:22:43;8.55;;;5.13;;
11685;SDS011;5899;51.282;6.094;2023-10-09T03:25:23;7.57;;;4.70;;
11685;SDS011;5899;51.282;6.094;2023-10-09T03:27:53;6.63;;;4.65;;
11685;SDS011;5899;51.282;6.094;2023-10-09T03:30:35;7.18;;;4.97;;
11685;SDS011;5899;51.282;6.094;2023-10-09T03:33:09;7.50;;;4.90;;
11685;SDS011;5899;51.282;6.094;2023-10-09T03:35:42;7.93;;;5.13;;
11685;SDS011;5899;51.282;6.094;2023-10-09T03:38:15;9.50;;;5.20;;
11685;SDS011;5899;51.282;6.094;2023-10-09T03:40:47;10.13;;;5.95;;
11685;SDS011;5899;51.282;6.094;2023-10-09T03:43:15;6.97;;;5.10;;
11685;SDS011;5899;51.282;6.094;2023-10-09T03:45:51;6.03;;;5.10;;
11685;SDS011;5899;51.282;6.094;2023-10-09T03:48:32;7.35;;;4.80;;
11685;SDS011;5899;51.282;6.094;2023-10-09T03:51:10;7.68;;;4.88;;
11685;SDS011;5899;51.282;6.094;2023-10-09T03:53:38;7.60;;;5.20;;
11685;SDS011;5899;51.282;6.094;2023-10-09T03:56:13;7.50;;;5.10;;
11685;SDS011;5899;51.282;6.094;2023-10-09T03:58:41;8.27;;;5.65;;
11685;SDS011;5899;51.282;6.094;2023-10-09T04:01:17;9.43;;;5.32;;
11685;SDS011;5899;51.282;6.094;2023-10-09T04:03:58;7.03;;;5.15;;
11685;SDS011;5899;51.282;6.094;2023-10-09T04:06:33;6.72;;;5.13;;
11685;SDS011;5899;51.282;6.094;2023-10-09T04:09:10;8.05;;;5.63;;
11685;SDS011;5899;51.282;6.094;2023-10-09T04:12:04;8.07;;;5.45;;
11685;SDS011;5899;51.282;6.094;2023-10-09T04:14:56;10.20;;;5.23;;
11685;SDS011;5899;51.282;6.094;2023-10-09T04:17:54;7.05;;;5.28;;
11685;SDS011;5899;51.282;6.094;2023-10-09T04:20:34;6.82;;;5.32;;
11685;SDS011;5899;51.282;6.094;2023-10-09T04:23:18;6.47;;;5.05;;
11685;SDS011;5899;51.282;6.094;2023-10-09T04:26:00;8.30;;;5.27;;
11685;SDS011;5899;51.282;6.094;2023-10-09T04:28:38;9.98;;;5.93;;
11685;SDS011;5899;51.282;6.094;2023-10-09T04:33:03;7.68;;;5.72;;
11685;SDS011;5899;51.282;6.094;2023-10-09T04:34:11;10.05;;;6.90;;
11685;SDS011;5899;51.282;6.094;2023-10-09T04:37:11;9.23;;;5.82;;
11685;SDS011;5899;51.282;6.094;2023-10-09T04:40:02;7.73;;;5.57;;
11685;SDS011;5899;51.282;6.094;2023-10-09T04:42:54;7.53;;;5.15;;
11685;SDS011;5899;51.282;6.094;2023-10-09T04:45:35;8.98;;;5.47;;
11685;SDS011;5899;51.282;6.094;2023-10-09T04:48:22;8.93;;;5.18;;
11685;SDS011;5899;51.282;6.094;2023-10-09T04:51:04;8.10;;;4.95;;
11685;SDS011;5899;51.282;6.094;2023-10-09T04:54:09;9.45;;;5.25;;
11685;SDS011;5899;51.282;6.094;2023-10-09T04:56:42;6.85;;;5.28;;
11685;SDS011;5899;51.282;6.094;2023-10-09T04:59:27;8.00;;;5.25;;
11685;SDS011;5899;51.282;6.094;2023-10-09T05:02:17;8.67;;;5.80;;
11685;SDS011;5899;51.282;6.094;2023-10-09T05:04:50;7.53;;;5.43;;
11685;SDS011;5899;51.282;6.094;2023-10-09T05:07:51;9.00;;;5.35;;
11685;SDS011;5899;51.282;6.094;2023-10-09T05:10:42;5.88;;;4.82;;
11685;SDS011;5899;51.282;6.094;2023-10-09T05:13:30;7.03;;;5.22;;
11685;SDS011;5899;51.282;6.094;2023-10-09T05:16:08;8.27;;;5.53;;
11685;SDS011;5899;51.282;6.094;2023-10-09T05:18:50;7.15;;;5.00;;
11685;SDS011;5899;51.282;6.094;2023-10-09T05:21:29;10.30;;;5.72;;
11685;SDS011;5899;51.282;6.094;2023-10-09T05:24:27;10.02;;;5.15;;
11685;SDS011;5899;51.282;6.094;2023-10-09T05:30:40;9.70;;;5.85;;
11685;SDS011;5899;51.282;6.094;2023-10-09T05:33:15;8.98;;;5.72;;
11685;SDS011;5899;51.282;6.094;2023-10-09T05:36:03;7.07;;;5.07;;
11685;SDS011;5899;51.282;6.094;2023-10-09T05:39:00;7.93;;;5.63;;
11685;SDS011;5899;51.282;6.094;2023-10-09T05:41:46;8.75;;;5.75;;
11685;SDS011;5899;51.282;6.094;2023-10-09T05:44:27;8.63;;;5.60;;
11685;SDS011;5899;51.282;6.094;2023-10-09T05:50:07;8.47;;;5.80;;
11685;SDS011;5899;51.282;6.094;2023-10-09T05:52:51;7.00;;;5.00;;
11685;SDS011;5899;51.282;6.094;2023-10-09T05:55:40;8.45;;;5.40;;
11685;SDS011;5899;51.282;6.094;2023-10-09T05:58:24;8.70;;;5.70;;
11685;SDS011;5899;51.282;6.094;2023-10-09T06:01:05;8.30;;;5.53;;
11685;SDS011;5899;51.282;6.094;2023-10-09T06:03:58;7.20;;;5.18;;
11685;SDS011;5899;51.282;6.094;2023-10-09T06:06:45;8.70;;;5.77;;
11685;SDS011;5899;51.282;6.094;2023-10-09T06:09:34;7.75;;;5.95;;
11685;SDS011;5899;51.282;6.094;2023-10-09T06:12:42;8.17;;;5.67;;
11685;SDS011;5899;51.282;6.094;2023-10-09T06:15:28;9.23;;;5.78;;
11685;SDS011;5899;51.282;6.094;2023-10-09T06:18:27;8.37;;;5.30;;
11685;SDS011;5899;51.282;6.094;2023-10-09T06:21:30;8.68;;;5.70;;
11685;SDS011;5899;51.282;6.094;2023-10-09T06:24:14;8.10;;;5.85;;
11685;SDS011;5899;51.282;6.094;2023-10-09T06:26:51;8.18;;;5.75;;
11685;SDS011;5899;51.282;6.094;2023-10-09T06:29:40;8.38;;;5.90;;
11685;SDS011;5899;51.282;6.094;2023-10-09T06:32:38;8.98;;;5.45;;
11685;SDS011;5899;51.282;6.094;2023-10-09T06:35:23;7.33;;;5.80;;
11685;SDS011;5899;51.282;6.094;2023-10-09T06:37:55;8.23;;;5.45;;
11685;SDS011;5899;51.282;6.094;2023-10-09T06:40:57;10.55;;;6.38;;
11685;SDS011;5899;51.282;6.094;2023-10-09T06:43:43;8.43;;;5.95;;
11685;SDS011;5899;51.282;6.094;2023-10-09T06:46:37;8.83;;;6.00;;
11685;SDS011;5899;51.282;6.094;2023-10-09T06:49:18;8.63;;;5.80;;
11685;SDS011;5899;51.282;6.094;2023-10-09T06:52:06;9.40;;;6.13;;
11685;SDS011;5899;51.282;6.094;2023-10-09T06:55:13;8.60;;;6.10;;
11685;SDS011;5899;51.282;6.094;2023-10-09T06:57:45;8.23;;;6.03;;
11685;SDS011;5899;51.282;6.094;2023-10-09T07:00:27;8.95;;;6.15;;
11685;SDS011;5899;51.282;6.094;2023-10-09T07:06:09;8.65;;;6.13;;
11685;SDS011;5899;51.282;6.094;2023-10-09T07:08:51;10.02;;;6.15;;
11685;SDS011;5899;51.282;6.094;2023-10-09T07:11:46;9.57;;;6.88;;
11685;SDS011;5899;51.282;6.094;2023-10-09T07:14:32;9.50;;;6.47;;
11685;SDS011;5899;51.282;6.094;2023-10-09T07:17:15;12.13;;;6.70;;
11685;SDS011;5899;51.282;6.094;2023-10-09T07:19:52;8.88;;;6.22;;
11685;SDS011;5899;51.282;6.094;2023-10-09T07:23:01;10.00;;;6.45;;
11685;SDS011;5899;51.282;6.094;2023-10-09T07:25:42;9.70;;;6.50;;
11685;SDS011;5899;51.282;6.094;2023-10-09T07:28:29;9.20;;;6.87;;
11685;SDS011;5899;51.282;6.094;2023-10-09T07:31:32;10.90;;;6.63;;
11685;SDS011;5899;51.282;6.094;2023-10-09T07:34:07;8.80;;;6.25;;
11685;SDS011;5899;51.282;6.094;2023-10-09T07:36:47;13.63;;;7.10;;
11685;SDS011;5899;51.282;6.094;2023-10-09T07:39:40;10.32;;;6.82;;
11685;SDS011;5899;51.282;6.094;2023-10-09T07:42:15;11.18;;;7.75;;
11685;SDS011;5899;51.282;6.094;2023-10-09T07:44:46;9.60;;;6.32;;
11685;SDS011;5899;51.282;6.094;2023-10-09T07:47:23;9.13;;;6.45;;
11685;SDS011;5899;51.282;6.094;2023-10-09T07:50:24;10.40;;;6.65;;
11685;SDS011;5899;51.282;6.094;2023-10-09T07:53:13;9.82;;;6.40;;
11685;SDS011;5899;51.282;6.094;2023-10-09T07:56:02;10.60;;;7.18;;
11685;SDS011;5899;51.282;6.094;2023-10-09T07:58:47;11.50;;;6.93;;
11685;SDS011;5899;51.282;6.094;2023-10-09T08:01:19;12.05;;;6.78;;
11685;SDS011;5899;51.282;6.094;2023-10-09T08:04:00;9.18;;;6.55;;
11685;SDS011;5899;51.282;6.094;2023-10-09T08:06:41;10.43;;;7.32;;
11685;SDS011;5899;51.282;6.094;2023-10-09T08:09:19;8.73;;;6.55;;
11685;SDS011;5899;51.282;6.094;2023-10-09T08:12:09;12.18;;;7.20;;
11685;SDS011;5899;51.282;6.094;2023-10-09T08:14:56;10.05;;;7.32;;
11685;SDS011;5899;51.282;6.094;2023-10-09T08:17:45;9.43;;;6.75;;
11685;SDS011;5899;51.282;6.094;2023-10-09T08:20:16;8.83;;;6.87;;
11685;SDS011;5899;51.282;6.094;2023-10-09T08:23:16;9.20;;;7.30;;
11685;SDS011;5899;51.282;6.094;2023-10-09T08:25:58;10.57;;;7.10;;
11685;SDS011;5899;51.282;6.094;2023-10-09T08:28:37;15.13;;;7.68;;
11685;SDS011;5899;51.282;6.094;2023-10-09T08:31:11;10.18;;;6.82;;
11685;SDS011;5899;51.282;6.094;2023-10-09T08:34:04;10.10;;;6.45;;
11685;SDS011;5899;51.282;6.094;2023-10-09T08:36:40;12.15;;;6.22;;
11685;SDS011;5899;51.282;6.094;2023-10-09T08:39:17;10.75;;;6.70;;
11685;SDS011;5899;51.282;6.094;2023-10-09T08:41:50;10.32;;;6.70;;
11685;SDS011;5899;51.282;6.094;2023-10-09T08:44:31;11.45;;;7.22;;
11685;SDS011;5899;51.282;6.094;2023-10-09T08:47:00;9.30;;;6.68;;
11685;SDS011;5899;51.282;6.094;2023-10-09T08:49:27;10.43;;;6.57;;
11685;SDS011;5899;51.282;6.094;2023-10-09T08:52:01;9.82;;;6.95;;
11685;SDS011;5899;51.282;6.094;2023-10-09T08:54:30;9.93;;;6.78;;
11685;SDS011;5899;51.282;6.094;2023-10-09T08:56:58;7.45;;;6.22;;
11685;SDS011;5899;51.282;6.094;2023-10-09T08:59:40;10.07;;;6.60;;
11685;SDS011;5899;51.282;6.094;2023-10-09T09:02:18;9.27;;;6.22;;
11685;SDS011;5899;51.282;6.094;2023-10-09T09:04:52;8.23;;;5.88;;
11685;SDS011;5899;51.282;6.094;2023-10-09T09:07:35;8.85;;;6.43;;
11685;SDS011;5899;51.282;6.094;2023-10-09T09:10:13;10.97;;;5.90;;
11685;SDS011;5899;51.282;6.094;2023-10-09T09:13:23;10.57;;;6.15;;
11685;SDS011;5899;51.282;6.094;2023-10-09T09:15:45;12.70;;;6.85;;
11685;SDS011;5899;51.282;6.094;2023-10-09T09:18:22;8.63;;;6.05;;
11685;SDS011;5899;51.282;6.094;2023-10-09T09:21:05;10.55;;;6.38;;
11685;SDS011;5899;51.282;6.094;2023-10-09T09:24:03;10.10;;;6.60;;
11685;SDS011;5899;51.282;6.094;2023-10-09T09:26:48;8.97;;;6.23;;
11685;SDS011;5899;51.282;6.094;2023-10-09T09:32:38;11.77;;;6.80;;
11685;SDS011;5899;51.282;6.094;2023-10-09T09:35:36;9.65;;;6.22;;
11685;SDS011;5899;51.282;6.094;2023-10-09T09:38:10;8.10;;;6.00;;
11685;SDS011;5899;51.282;6.094;2023-10-09T09:40:44;9.88;;;6.38;;
11685;SDS011;5899;51.282;6.094;2023-10-09T09:43:19;8.65;;;6.05;;
11685;SDS011;5899;51.282;6.094;2023-10-09T09:46:02;9.05;;;6.47;;
11685;SDS011;5899;51.282;6.094;2023-10-09T09:51:28;7.03;;;5.80;;
11685;SDS011;5899;51.282;6.094;2023-10-09T09:54:12;9.38;;;6.60;;
11685;SDS011;5899;51.282;6.094;2023-10-09T09:57:02;9.43;;;5.85;;
11685;SDS011;5899;51.282;6.094;2023-10-09T09:59:45;10.23;;;6.20;;
11685;SDS011;5899;51.282;6.094;2023-10-09T10:02:20;8.40;;;6.32;;
11685;SDS011;5899;51.282;6.094;2023-10-09T10:05:56;10.68;;;6.80;;
11685;SDS011;5899;51.282;6.094;2023-10-09T10:07:47;8.77;;;6.05;;
11685;SDS011;5899;51.282;6.094;2023-10-09T10:12:58;7.95;;;6.10;;
11685;SDS011;5899;51.282;6.094;2023-10-09T10:18:38;10.63;;;6.65;;
11685;SDS011;5899;51.282;6.094;2023-10-09T10:27:56;10.77;;;6.85;;
11685;SDS011;5899;51.282;6.094;2023-10-09T10:30:50;9.75;;;6.30;;
11685;SDS011;5899;51.282;6.094;2023-10-09T10:36:32;9.10;;;6.55;;
11685;SDS011;5899;51.282;6.094;2023-10-09T10:39:07;8.85;;;5.90;;
11685;SDS011;5899;51.282;6.094;2023-10-09T10:50:46;10.37;;;7.07;;
11685;SDS011;5899;51.282;6.094;2023-10-09T10:53:43;12.82;;;6.72;;
11685;SDS011;5899;51.282;6.094;2023-10-09T10:57:42;10.43;;;6.95;;
11685;SDS011;5899;51.282;6.094;2023-10-09T11:03:13;10.07;;;7.53;;
11685;SDS011;5899;51.282;6.094;2023-10-09T11:05:51;12.50;;;6.95;;
11685;SDS011;5899;51.282;6.094;2023-10-09T11:08:25;9.38;;;7.10;;
11685;SDS011;5899;51.282;6.094;2023-10-09T11:11:10;10.73;;;6.97;;
11685;SDS011;5899;51.282;6.094;2023-10-09T11:13:46;9.90;;;6.40;;
11685;SDS011;5899;51.282;6.094;2023-10-09T11:16:48;8.95;;;6.85;;
11685;SDS011;5899;51.282;6.094;2023-10-09T11:19:19;12.00;;;7.47;;
11685;SDS011;5899;51.282;6.094;2023-10-09T11:22:12;9.07;;;6.85;;
11685;SDS011;5899;51.282;6.094;2023-10-09T11:25:08;11.48;;;6.93;;
11685;SDS011;5899;51.282;6.094;2023-10-09T11:27:44;9.70;;;6.68;;
11685;SDS011;5899;51.282;6.094;2023-10-09T11:30:17;11.00;;;7.53;;
11685;SDS011;5899;51.282;6.094;2023-10-09T11:33:23;10.43;;;6.95;;
11685;SDS011;5899;51.282;6.094;2023-10-09T11:36:05;11.32;;;7.47;;
11685;SDS011;5899;51.282;6.094;2023-10-09T11:38:39;9.53;;;7.00;;
11685;SDS011;5899;51.282;6.094;2023-10-09T11:41:18;9.73;;;7.18;;
11685;SDS011;5899;51.282;6.094;2023-10-09T11:43:51;11.02;;;7.25;;
11685;SDS011;5899;51.282;6.094;2023-10-09T11:46:19;10.73;;;6.82;;
11685;SDS011;5899;51.282;6.094;2023-10-09T11:49:05;8.75;;;6.70;;
11685;SDS011;5899;51.282;6.094;2023-10-09T11:52:06;9.57;;;6.70;;
11685;SDS011;5899;51.282;6.094;2023-10-09T11:55:04;7.22;;;6.40;;
11685;SDS011;5899;51.282;6.094;2023-10-09T11:57:40;10.77;;;6.78;;
11685;SDS011;5899;51.282;6.094;2023-10-09T12:00:07;9.30;;;6.87;;
11685;SDS011;5899;51.282;6.094;2023-10-09T12:02:53;9.00;;;6.55;;
11685;SDS011;5899;51.282;6.094;2023-10-09T12:05:30;10.50;;;6.43;;
11685;SDS011;5899;51.282;6.094;2023-10-09T12:07:57;10.73;;;6.45;;
11685;SDS011;5899;51.282;6.094;2023-10-09T12:10:36;9.07;;;6.50;;
11685;SDS011;5899;51.282;6.094;2023-10-09T12:13:03;9.67;;;6.97;;
11685;SDS011;5899;51.282;6.094;2023-10-09T12:15:32;9.20;;;7.82;;
11685;SDS011;5899;51.282;6.094;2023-10-09T12:18:04;10.32;;;7.10;;
11685;SDS011;5899;51.282;6.094;2023-10-09T12:20:32;8.63;;;6.78;;
11685;SDS011;5899;51.282;6.094;2023-10-09T12:23:04;9.88;;;6.25;;
11685;SDS011;5899;51.282;6.094;2023-10-09T12:25:31;9.93;;;6.38;;
11685;SDS011;5899;51.282;6.094;2023-10-09T12:28:02;10.20;;;6.10;;
11685;SDS011;5899;51.282;6.094;2023-10-09T12:30:39;8.98;;;6.40;;
11685;SDS011;5899;51.282;6.094;2023-10-09T12:33:18;12.73;;;6.57;;
11685;SDS011;5899;51.282;6.094;2023-10-09T12:35:52;9.13;;;6.47;;
11685;SDS011;5899;51.282;6.094;2023-10-09T12:38:25;10.48;;;6.03;;
11685;SDS011;5899;51.282;6.094;2023-10-09T12:41:07;9.70;;;6.30;;
11685;SDS011;5899;51.282;6.094;2023-10-09T12:43:51;8.70;;;6.18;;
11685;SDS011;5899;51.282;6.094;2023-10-09T12:46:25;10.95;;;6.50;;
11685;SDS011;5899;51.282;6.094;2023-10-09T12:48:53;9.70;;;6.23;;
11685;SDS011;5899;51.282;6.094;2023-10-09T12:51:20;10.93;;;7.03;;
11685;SDS011;5899;51.282;6.094;2023-10-09T12:53:51;8.93;;;6.53;;
11685;SDS011;5899;51.282;6.094;2023-10-09T12:56:22;11.25;;;6.35;;
11685;SDS011;5899;51.282;6.094;2023-10-09T12:58:59;10.93;;;6.53;;
11685;SDS011;5899;51.282;6.094;2023-10-09T13:01:26;11.07;;;6.53;;
11685;SDS011;5899;51.282;6.094;2023-10-09T13:03:57;8.85;;;6.68;;
11685;SDS011;5899;51.282;6.094;2023-10-09T13:06:25;11.85;;;7.32;;
11685;SDS011;5899;51.282;6.094;2023-10-09T13:08:54;11.15;;;7.20;;
11685;SDS011;5899;51.282;6.094;2023-10-09T13:11:24;9.88;;;7.45;;
11685;SDS011;5899;51.282;6.094;2023-10-09T13:13:53;10.05;;;7.03;;
11685;SDS011;5899;51.282;6.094;2023-10-09T13:16:30;10.53;;;6.50;;
11685;SDS011;5899;51.282;6.094;2023-10-09T13:18:57;8.85;;;6.35;;
11685;SDS011;5899;51.282;6.094;2023-10-09T13:21:25;11.40;;;8.10;;
11685;SDS011;5899;51.282;6.094;2023-10-09T13:23:57;11.68;;;7.53;;
11685;SDS011;5899;51.282;6.094;2023-10-09T13:26:27;8.95;;;7.10;;
11685;SDS011;5899;51.282;6.094;2023-10-09T13:28:55;9.13;;;7.35;;
11685;SDS011;5899;51.282;6.094;2023-10-09T13:31:23;9.53;;;7.67;;
11685;SDS011;5899;51.282;6.094;2023-10-09T13:33:52;11.20;;;8.50;;
11685;SDS011;5899;51.282;6.094;2023-10-09T13:36:20;10.77;;;7.63;;
11685;SDS011;5899;51.282;6.094;2023-10-09T13:38:57;13.25;;;8.63;;
11685;SDS011;5899;51.282;6.094;2023-10-09T13:41:44;13.20;;;8.05;;
11685;SDS011;5899;51.282;6.094;2023-10-09T13:44:13;13.02;;;7.60;;
11685;SDS011;5899;51.282;6.094;2023-10-09T13:46:49;13.07;;;8.53;;
11685;SDS011;5899;51.282;6.094;2023-10-09T13:49:23;11.13;;;7.45;;
11685;SDS011;5899;51.282;6.094;2023-10-09T13:51:55;15.25;;;7.80;;
11685;SDS011;5899;51.282;6.094;2023-10-09T13:54:22;12.18;;;8.15;;
11685;SDS011;5899;51.282;6.094;2023-10-09T13:56:54;11.43;;;8.18;;
11685;SDS011;5899;51.282;6.094;2023-10-09T13:59:20;12.25;;;8.52;;
11685;SDS011;5899;51.282;6.094;2023-10-09T14:07:19;13.90;;;8.82;;
11685;SDS011;5899;51.282;6.094;2023-10-09T14:10:01;12.75;;;8.80;;
11685;SDS011;5899;51.282;6.094;2023-10-09T14:12:42;11.90;;;8.38;;
11685;SDS011;5899;51.282;6.094;2023-10-09T14:15:09;15.73;;;9.52;;
11685;SDS011;5899;51.282;6.094;2023-10-09T14:17:48;12.75;;;9.40;;
11685;SDS011;5899;51.282;6.094;2023-10-09T14:20:20;12.70;;;8.95;;
11685;SDS011;5899;51.282;6.094;2023-10-09T14:22:58;14.32;;;8.90;;
11685;SDS011;5899;51.282;6.094;2023-10-09T14:25:41;15.55;;;9.40;;
11685;SDS011;5899;51.282;6.094;2023-10-09T14:28:14;13.50;;;9.30;;
11685;SDS011;5899;51.282;6.094;2023-10-09T14:30:46;14.63;;;9.38;;
11685;SDS011;5899;51.282;6.094;2023-10-09T14:33:21;14.27;;;8.93;;
11685;SDS011;5899;51.282;6.094;2023-10-09T14:35:55;14.00;;;8.52;;
11685;SDS011;5899;51.282;6.094;2023-10-09T14:38:28;13.10;;;8.73;;
11685;SDS011;5899;51.282;6.094;2023-10-09T14:40:58;13.50;;;8.95;;
11685;SDS011;5899;51.282;6.094;2023-10-09T14:43:32;10.55;;;9.07;;
11685;SDS011;5899;51.282;6.094;2023-10-09T14:46:00;12.88;;;8.50;;
11685;SDS011;5899;51.282;6.094;2023-10-09T14:48:36;14.77;;;9.90;;
11685;SDS011;5899;51.282;6.094;2023-10-09T14:51:04;14.68;;;8.98;;
11685;SDS011;5899;51.282;6.094;2023-10-09T14:53:38;17.17;;;10.70;;
11685;SDS011;5899;51.282;6.094;2023-10-09T14:56:07;12.82;;;9.20;;
11685;SDS011;5899;51.282;6.094;2023-10-09T14:58:35;13.10;;;9.40;;
11685;SDS011;5899;51.282;6.094;2023-10-09T15:01:09;11.35;;;8.70;;
11685;SDS011;5899;51.282;6.094;2023-10-09T15:03:55;11.55;;;8.85;;
11685;SDS011;5899;51.282;6.094;2023-10-09T15:06:25;14.70;;;9.27;;
11685;SDS011;5899;51.282;6.094;2023-10-09T15:09:06;14.75;;;8.30;;
11685;SDS011;5899;51.282;6.094;2023-10-09T15:11:47;10.77;;;8.38;;
11685;SDS011;5899;51.282;6.094;2023-10-09T15:14:15;12.90;;;8.97;;
11685;SDS011;5899;51.282;6.094;2023-10-09T15:16:43;13.70;;;8.25;;
11685;SDS011;5899;51.282;6.094;2023-10-09T15:19:15;12.68;;;8.32;;
11685;SDS011;5899;51.282;6.094;2023-10-09T15:21:57;13.27;;;8.95;;
11685;SDS011;5899;51.282;6.094;2023-10-09T15:24:36;9.80;;;7.03;;
11685;SDS011;5899;51.282;6.094;2023-10-09T15:27:03;11.13;;;8.07;;
11685;SDS011;5899;51.282;6.094;2023-10-09T15:29:33;10.98;;;7.22;;
11685;SDS011;5899;51.282;6.094;2023-10-09T15:32:09;10.57;;;7.68;;
11685;SDS011;5899;51.282;6.094;2023-10-09T15:34:42;14.27;;;8.43;;
11685;SDS011;5899;51.282;6.094;2023-10-09T15:37:09;10.70;;;8.25;;
11685;SDS011;5899;51.282;6.094;2023-10-09T15:39:39;12.38;;;8.02;;
11685;SDS011;5899;51.282;6.094;2023-10-09T15:42:06;11.77;;;7.43;;
11685;SDS011;5899;51.282;6.094;2023-10-09T15:44:34;12.30;;;7.85;;
11685;SDS011;5899;51.282;6.094;2023-10-09T15:47:03;11.75;;;8.98;;
11685;SDS011;5899;51.282;6.094;2023-10-09T15:49:35;11.50;;;7.83;;
11685;SDS011;5899;51.282;6.094;2023-10-09T15:52:06;9.20;;;7.57;;
11685;SDS011;5899;51.282;6.094;2023-10-09T15:54:34;9.87;;;7.43;;
11685;SDS011;5899;51.282;6.094;2023-10-09T15:57:02;12.20;;;7.97;;
11685;SDS011;5899;51.282;6.094;2023-10-09T15:59:30;12.85;;;7.95;;
11685;SDS011;5899;51.282;6.094;2023-10-09T16:01:59;10.88;;;6.82;;
11685;SDS011;5899;51.282;6.094;2023-10-09T16:04:28;14.02;;;7.78;;
11685;SDS011;5899;51.282;6.094;2023-10-09T16:07:04;12.40;;;8.25;;
11685;SDS011;5899;51.282;6.094;2023-10-09T16:09:34;11.23;;;7.57;;
11685;SDS011;5899;51.282;6.094;2023-10-09T16:12:05;9.82;;;7.72;;
11685;SDS011;5899;51.282;6.094;2023-10-09T16:14:34;13.43;;;7.47;;
11685;SDS011;5899;51.282;6.094;2023-10-09T16:17:04;11.00;;;8.10;;
11685;SDS011;5899;51.282;6.094;2023-10-09T16:19:32;13.65;;;8.50;;
11685;SDS011;5899;51.282;6.094;2023-10-09T16:22:01;11.13;;;7.68;;
11685;SDS011;5899;51.282;6.094;2023-10-09T16:24:46;11.02;;;7.40;;
11685;SDS011;5899;51.282;6.094;2023-10-09T16:36:09;11.63;;;6.97;;
11685;SDS011;5899;51.282;6.094;2023-10-09T16:38:56;11.07;;;6.33;;
11685;SDS011;5899;51.282;6.094;2023-10-09T16:41:51;9.50;;;6.65;;
11685;SDS011;5899;51.282;6.094;2023-10-09T16:44:19;10.10;;;7.53;;
11685;SDS011;5899;51.282;6.094;2023-10-09T16:46:59;10.32;;;7.38;;
11685;SDS011;5899;51.282;6.094;2023-10-09T16:49:27;10.32;;;7.15;;
11685;SDS011;5899;51.282;6.094;2023-10-09T16:51:57;8.82;;;7.05;;
11685;SDS011;5899;51.282;6.094;2023-10-09T16:54:23;10.95;;;7.15;;
11685;SDS011;5899;51.282;6.094;2023-10-09T16:56:54;10.88;;;7.35;;
11685;SDS011;5899;51.282;6.094;2023-10-09T16:59:24;10.20;;;7.68;;
11685;SDS011;5899;51.282;6.094;2023-10-09T17:01:51;10.55;;;7.32;;
11685;SDS011;5899;51.282;6.094;2023-10-09T17:04:19;10.77;;;7.47;;